createdAt,value
2024-05-09T00:00:43.840Z,1.25
2024-05-09T00:03:12.373Z,1.17
2024-05-09T00:05:44.458Z,1.20
2024-05-09T00:08:12.627Z,1.48
2024-05-09T00:10:41.032Z,1.10
2024-05-09T00:13:11.131Z,0.90
2024-05-09T00:15:39.203Z,1.17
2024-05-09T00:18:07.804Z,1.02
2024-05-09T00:20:39.480Z,1.05
2024-05-09T00:23:13.903Z,1.40
2024-05-09T00:25:45.126Z,1.30
2024-05-09T00:28:13.174Z,1.10
2024-05-09T00:30:40.945Z,1.50
2024-05-09T00:33:10.239Z,1.20
2024-05-09T00:35:39.178Z,1.60
2024-05-09T00:38:06.845Z,1.50
2024-05-09T00:40:42.003Z,1.35
2024-05-09T00:43:14.778Z,1.33
2024-05-09T00:45:43.666Z,1.58
2024-05-09T00:48:15.176Z,1.80
2024-05-09T00:50:46.174Z,1.60
2024-05-09T00:53:15.923Z,1.60
2024-05-09T00:55:44.340Z,1.55
2024-05-09T00:58:14.496Z,1.48
2024-05-09T01:00:42.152Z,1.73
2024-05-09T01:03:12.367Z,1.50
2024-05-09T01:05:43.539Z,1.67
2024-05-09T01:08:11.945Z,2.03
2024-05-09T01:10:42.576Z,2.00
2024-05-09T01:13:12.525Z,1.63
2024-05-09T01:15:40.113Z,1.60
2024-05-09T01:18:11.023Z,2.00
2024-05-09T01:20:42.864Z,1.45
2024-05-09T01:23:14.661Z,2.15
2024-05-09T01:25:47.106Z,1.83
2024-05-09T01:28:16.597Z,2.10
2024-05-09T01:30:44.125Z,2.42
2024-05-09T01:33:12.631Z,2.80
2024-05-09T01:35:42.302Z,2.50
2024-05-09T01:38:17.439Z,2.47
2024-05-09T01:40:45.642Z,2.63
2024-05-09T01:43:13.149Z,2.38
2024-05-09T01:45:41.487Z,2.55
2024-05-09T01:48:10.759Z,2.80
2024-05-09T01:50:41.725Z,2.95
2024-05-09T01:53:11.850Z,2.42
2024-05-09T01:55:39.655Z,2.42
2024-05-09T01:58:07.693Z,3.72
2024-05-09T02:00:40.288Z,2.70
2024-05-09T02:03:14.599Z,2.30
2024-05-09T02:05:50.180Z,2.72
2024-05-09T02:10:48.209Z,2.67
2024-05-09T02:13:16.810Z,2.33
2024-05-09T02:15:44.629Z,2.60
2024-05-09T02:18:13.021Z,2.70
2024-05-09T02:20:42.188Z,2.33
2024-05-09T02:23:10.461Z,2.33
2024-05-09T02:25:38.196Z,2.75
2024-05-09T02:28:06.300Z,3.20
2024-05-09T02:30:39.655Z,2.30
2024-05-09T02:33:14.001Z,2.22
2024-05-09T02:35:43.620Z,2.50
2024-05-09T02:38:12.526Z,2.38
2024-05-09T02:40:40.718Z,2.10
2024-05-09T02:43:10.769Z,2.25
2024-05-09T02:45:39.929Z,2.20
2024-05-09T02:48:11.550Z,2.58
2024-05-09T02:50:44.734Z,2.10
2024-05-09T02:53:13.308Z,2.20
2024-05-09T02:55:42.034Z,1.83
2024-05-09T02:58:10.284Z,2.22
2024-05-09T03:00:41.295Z,2.15
2024-05-09T03:03:13.280Z,2.08
2024-05-09T03:05:43.928Z,2.33
2024-05-09T03:08:11.917Z,2.10
2024-05-09T03:10:40.034Z,2.00
2024-05-09T03:13:15.178Z,1.70
2024-05-09T03:15:44.941Z,1.88
2024-05-09T03:18:12.963Z,1.58
2024-05-09T03:20:40.886Z,2.13
2024-05-09T03:23:09.845Z,1.67
2024-05-09T03:25:40.061Z,2.00
2024-05-09T03:28:07.667Z,1.92
2024-05-09T03:30:40.442Z,2.05
2024-05-09T03:33:20.780Z,1.75
2024-05-09T03:35:49.453Z,1.73
2024-05-09T03:38:17.368Z,2.00
2024-05-09T03:40:50.211Z,2.00
2024-05-09T03:43:19.673Z,2.20
2024-05-09T03:45:49.679Z,2.25
2024-05-09T03:48:17.582Z,2.10
2024-05-09T03:50:45.676Z,2.17
2024-05-09T03:53:14.843Z,1.92
2024-05-09T03:55:43.430Z,1.98
2024-05-09T03:58:13.176Z,2.35
2024-05-09T04:00:42.363Z,2.20
2024-05-09T04:03:12.057Z,2.50
2024-05-09T04:05:42.636Z,2.22
2024-05-09T04:08:13.399Z,2.10
2024-05-09T04:10:41.399Z,2.03
2024-05-09T04:13:10.148Z,2.22
2024-05-09T04:15:37.571Z,2.33
2024-05-09T04:18:05.403Z,2.63
2024-05-09T04:20:38.333Z,2.47
2024-05-09T04:23:11.632Z,2.55
2024-05-09T04:25:42.111Z,2.67
2024-05-09T04:28:10.002Z,2.90
2024-05-09T04:30:40.284Z,3.22
2024-05-09T04:33:12.289Z,2.70
2024-05-09T04:35:43.204Z,2.43
2024-05-09T04:38:11.510Z,2.55
2024-05-09T04:40:39.117Z,2.72
2024-05-09T04:43:07.437Z,2.33
2024-05-09T04:45:35.722Z,2.88
2024-05-09T04:48:03.774Z,2.28
2024-05-09T04:50:36.917Z,3.10
2024-05-09T04:53:11.210Z,3.55
2024-05-09T04:55:40.576Z,3.28
2024-05-09T04:58:14.241Z,3.55
2024-05-09T05:00:43.436Z,3.53
2024-05-09T05:03:14.541Z,3.85
2024-05-09T05:05:45.206Z,4.10
2024-05-09T05:08:14.336Z,3.40
2024-05-09T05:10:43.100Z,3.22
2024-05-09T05:13:20.805Z,3.13
2024-05-09T05:15:52.264Z,3.25
2024-05-09T05:18:20.122Z,3.17
2024-05-09T05:20:48.143Z,3.03
2024-05-09T05:23:19.710Z,2.63
2024-05-09T05:25:48.757Z,2.55
2024-05-09T05:28:17.083Z,2.65
2024-05-09T05:30:45.204Z,3.03
2024-05-09T05:33:14.950Z,2.88
2024-05-09T05:35:43.020Z,2.88
2024-05-09T05:38:11.327Z,2.55
2024-05-09T05:40:40.385Z,2.70
2024-05-09T05:43:10.784Z,3.08
2024-05-09T05:45:39.406Z,2.63
2024-05-09T05:48:08.790Z,2.60
2024-05-09T05:50:38.251Z,2.65
2024-05-09T05:53:08.115Z,2.83
2024-05-09T05:55:40.288Z,2.63
2024-05-09T05:58:12.119Z,2.33
2024-05-09T06:00:41.696Z,2.65
2024-05-09T06:03:11.011Z,2.83
2024-05-09T06:05:44.129Z,2.80
2024-05-09T06:10:41.166Z,2.72
2024-05-09T06:13:11.712Z,2.90
2024-05-09T06:15:40.823Z,2.95
2024-05-09T06:18:10.892Z,2.80
2024-05-09T06:20:43.256Z,2.60
2024-05-09T06:23:13.127Z,2.50
2024-05-09T06:25:40.887Z,3.03
2024-05-09T06:28:08.378Z,3.30
2024-05-09T06:30:42.332Z,2.78
2024-05-09T06:33:14.184Z,2.92
2024-05-09T06:35:44.357Z,2.40
2024-05-09T06:38:12.475Z,2.78
2024-05-09T06:40:42.517Z,2.95
2024-05-09T06:43:16.764Z,2.60
2024-05-09T06:45:50.384Z,2.67
2024-05-09T06:48:19.788Z,2.58
2024-05-09T06:50:48.507Z,3.15
2024-05-09T06:53:17.209Z,3.70
2024-05-09T06:55:44.869Z,3.90
2024-05-09T06:58:12.612Z,3.53
2024-05-09T07:00:41.751Z,4.30
2024-05-09T07:03:12.460Z,3.70
2024-05-09T07:05:41.799Z,3.40
2024-05-09T07:08:09.582Z,3.22
2024-05-09T07:10:37.581Z,3.10
2024-05-09T07:13:12.666Z,3.45
2024-05-09T07:15:41.458Z,3.10
2024-05-09T07:18:13.147Z,3.00
2024-05-09T07:20:42.801Z,2.90
2024-05-09T07:23:11.422Z,2.95
2024-05-09T07:25:40.925Z,3.53
2024-05-09T07:28:19.377Z,3.13
2024-05-09T07:30:47.268Z,3.33
2024-05-09T07:33:23.259Z,3.40
2024-05-09T07:35:52.249Z,3.47
2024-05-09T07:38:20.255Z,3.60
2024-05-09T07:40:47.784Z,2.65
2024-05-09T07:43:16.359Z,2.92
2024-05-09T07:45:51.880Z,2.03
2024-05-09T07:52:39.147Z,2.22
2024-05-09T07:53:47.805Z,2.03
2024-05-09T07:56:19.913Z,2.35
2024-05-09T07:58:51.120Z,3.00
2024-05-09T08:01:19.144Z,2.92
2024-05-09T08:03:49.531Z,2.13
2024-05-09T08:06:17.192Z,2.45
2024-05-09T08:08:46.767Z,2.17
2024-05-09T08:11:14.290Z,2.75
2024-05-09T08:13:41.941Z,2.97
2024-05-09T08:16:09.521Z,2.08
2024-05-09T08:18:37.318Z,2.40
2024-05-09T08:21:05.172Z,2.30
2024-05-09T08:23:32.681Z,2.22
2024-05-09T08:26:00.063Z,2.30
2024-05-09T08:28:28.098Z,2.90
2024-05-09T08:30:57.170Z,2.13
2024-05-09T08:33:24.795Z,1.98
2024-05-09T08:35:54.215Z,2.72
2024-05-09T08:38:21.592Z,2.80
2024-05-09T08:40:49.677Z,2.60
2024-05-09T08:43:20.304Z,2.20
2024-05-09T08:45:49.832Z,2.75
2024-05-09T08:48:19.920Z,2.63
2024-05-09T08:50:50.632Z,3.08
2024-05-09T08:53:19.042Z,2.75
2024-05-09T08:55:47.345Z,2.33
2024-05-09T08:58:19.923Z,2.40
2024-05-09T09:03:19.377Z,2.20
2024-05-09T09:05:58.764Z,2.40
2024-05-09T09:08:26.801Z,1.77
2024-05-09T09:10:59.311Z,2.13
2024-05-09T09:13:28.161Z,2.65
2024-05-09T09:16:03.255Z,2.45
2024-05-09T09:18:31.174Z,2.13
2024-05-09T09:20:58.854Z,2.40
2024-05-09T09:23:30.442Z,2.22
2024-05-09T09:26:01.923Z,2.20
2024-05-09T09:28:30.155Z,1.98
2024-05-09T09:31:05.049Z,1.90
2024-05-09T09:33:33.390Z,2.05
2024-05-09T09:36:03.866Z,2.53
2024-05-09T09:38:32.745Z,2.22
2024-05-09T09:41:04.749Z,2.17
2024-05-09T09:43:33.240Z,2.08
2024-05-09T09:46:02.896Z,2.38
2024-05-09T09:48:32.529Z,2.85
2024-05-09T09:51:01.170Z,3.15
2024-05-09T09:53:29.399Z,2.42
2024-05-09T09:55:58.237Z,1.80
2024-05-09T09:58:25.997Z,1.90
2024-05-09T10:00:53.709Z,1.75
2024-05-09T10:03:21.558Z,1.70
2024-05-09T10:05:50.104Z,1.60
2024-05-09T10:08:19.282Z,1.60
2024-05-09T10:10:48.090Z,1.75
2024-05-09T10:13:16.312Z,1.40
2024-05-09T10:15:51.538Z,1.83
2024-05-09T10:18:34.272Z,2.05
2024-05-09T10:21:02.000Z,1.80
2024-05-09T10:23:34.764Z,1.70
2024-05-09T10:26:05.726Z,1.63
2024-05-09T10:28:36.192Z,1.92
2024-05-09T10:31:15.496Z,1.90
2024-05-09T10:33:49.544Z,1.50
2024-05-09T10:36:25.427Z,1.40
2024-05-09T10:38:54.493Z,1.20
2024-05-09T10:41:23.266Z,1.42
2024-05-09T10:43:51.924Z,1.10
2024-05-09T10:46:20.155Z,1.05
2024-05-09T10:48:49.917Z,1.75
2024-05-09T10:51:21.813Z,1.38
2024-05-09T10:53:49.456Z,1.15
2024-05-09T10:56:17.518Z,1.30
2024-05-09T10:58:49.440Z,1.30
2024-05-09T11:01:17.274Z,1.17
2024-05-09T11:03:49.265Z,1.30
2024-05-09T11:06:18.100Z,1.20
2024-05-09T11:08:47.185Z,1.35
2024-05-09T11:11:15.543Z,1.60
2024-05-09T11:13:43.324Z,1.30
2024-05-09T11:16:21.552Z,1.50
2024-05-09T11:18:57.226Z,1.63
2024-05-09T11:21:25.367Z,1.48
2024-05-09T11:23:53.021Z,1.50
2024-05-09T11:26:22.448Z,1.80
2024-05-09T11:28:51.015Z,1.40
2024-05-09T11:31:19.177Z,1.25
2024-05-09T11:33:47.353Z,1.50
2024-05-09T11:36:15.280Z,1.40
2024-05-09T11:38:43.318Z,1.52
2024-05-09T11:41:17.771Z,1.50
2024-05-09T11:43:45.208Z,1.40
2024-05-09T11:46:12.807Z,1.65
2024-05-09T11:48:40.802Z,1.27
2024-05-09T11:51:08.438Z,1.80
2024-05-09T11:53:35.827Z,1.70
2024-05-09T11:56:03.516Z,1.48
2024-05-09T11:58:34.962Z,1.60
2024-05-09T12:01:02.763Z,2.67
2024-05-09T12:03:30.524Z,1.63
2024-05-09T12:05:58.370Z,1.92
2024-05-09T12:08:26.168Z,1.65
2024-05-09T12:10:54.089Z,1.63
2024-05-09T12:13:23.379Z,1.58
2024-05-09T12:15:51.001Z,1.40
2024-05-09T12:18:18.653Z,1.70
2024-05-09T12:20:46.284Z,1.38
2024-05-09T12:23:13.888Z,1.13
2024-05-09T12:25:43.027Z,1.50
2024-05-09T12:28:10.678Z,1.25
2024-05-09T12:30:40.487Z,1.65
2024-05-09T12:33:11.866Z,1.13
2024-05-09T12:35:41.769Z,1.48
2024-05-09T12:38:10.524Z,1.60
2024-05-09T12:40:39.220Z,2.17
2024-05-09T12:43:08.873Z,2.30
2024-05-09T12:45:38.461Z,2.10
2024-05-09T12:48:08.775Z,2.15
2024-05-09T12:50:40.027Z,2.13
2024-05-09T12:53:07.858Z,2.33
2024-05-09T12:55:44.037Z,2.30
2024-05-09T12:58:20.229Z,2.42
2024-05-09T13:00:47.885Z,2.20
2024-05-09T13:03:15.670Z,2.10
2024-05-09T13:05:45.371Z,1.98
2024-05-09T13:08:14.154Z,1.90
2024-05-09T13:10:41.791Z,2.08
2024-05-09T13:13:10.542Z,1.90
2024-05-09T13:15:38.226Z,1.75
2024-05-09T13:18:07.086Z,1.98
2024-05-09T13:20:36.658Z,3.10
2024-05-09T13:23:07.364Z,2.13
2024-05-09T13:25:36.448Z,1.80
2024-05-09T13:28:04.918Z,2.30
2024-05-09T13:30:40.046Z,2.20
2024-05-09T13:33:11.678Z,1.40
2024-05-09T13:35:46.927Z,1.60
2024-05-09T13:38:21.083Z,1.42
2024-05-09T13:40:49.604Z,1.75
2024-05-09T13:43:18.189Z,2.05
2024-05-09T13:45:46.249Z,1.98
2024-05-09T13:48:13.905Z,2.20
2024-05-09T13:50:41.999Z,2.10
2024-05-09T13:53:09.431Z,2.10
2024-05-09T13:55:40.496Z,2.58
2024-05-09T13:58:09.314Z,2.22
2024-05-09T14:00:45.958Z,2.30
2024-05-09T14:03:18.922Z,2.30
2024-05-09T14:05:48.255Z,2.15
2024-05-09T14:08:20.620Z,2.55
2024-05-09T14:10:49.312Z,2.50
2024-05-09T14:13:17.273Z,3.00
2024-05-09T14:15:46.353Z,2.30
2024-05-09T14:18:14.587Z,2.97
2024-05-09T14:20:43.283Z,3.30
2024-05-09T14:23:11.158Z,3.13
2024-05-09T14:25:42.742Z,3.90
2024-05-09T14:28:12.949Z,3.47
2024-05-09T14:30:42.192Z,3.22
2024-05-09T14:33:10.627Z,3.67
2024-05-09T14:35:39.056Z,3.72
2024-05-09T14:38:08.043Z,3.70
2024-05-09T14:40:41.896Z,3.90
2024-05-09T14:43:15.579Z,3.67
2024-05-09T14:45:44.515Z,3.75
2024-05-09T14:48:15.831Z,3.28
2024-05-09T14:50:45.437Z,3.33
2024-05-09T14:53:13.891Z,4.15
2024-05-09T14:55:43.754Z,4.25
2024-05-09T14:58:13.473Z,4.45
2024-05-09T15:00:46.844Z,4.60
2024-05-09T15:03:19.382Z,4.38
2024-05-09T15:05:48.097Z,3.97
2024-05-09T15:08:18.983Z,4.72
2024-05-09T15:10:47.344Z,3.80
2024-05-09T15:13:16.860Z,3.85
2024-05-09T15:15:45.174Z,3.42
2024-05-09T15:18:14.267Z,3.58
2024-05-09T15:20:43.751Z,2.85
2024-05-09T15:23:11.479Z,3.40
2024-05-09T15:25:39.034Z,3.20
2024-05-09T15:28:10.128Z,2.70
2024-05-09T15:30:37.928Z,3.00
2024-05-09T15:33:07.166Z,3.50
2024-05-09T15:35:36.210Z,4.40
2024-05-09T15:38:04.631Z,3.70
2024-05-09T15:40:38.988Z,3.67
2024-05-09T15:43:10.575Z,3.58
2024-05-09T15:45:40.283Z,12.40
2024-05-09T15:48:10.105Z,23.50
2024-05-09T15:50:41.030Z,5.07
2024-05-09T15:53:12.195Z,4.60
2024-05-09T15:55:40.817Z,3.85
2024-05-09T15:58:08.970Z,3.97
2024-05-09T16:00:40.314Z,4.18
2024-05-09T16:03:12.213Z,5.22
2024-05-09T16:05:41.664Z,5.63
2024-05-09T16:08:09.656Z,3.88
2024-05-09T16:10:43.549Z,4.15
2024-05-09T16:13:12.886Z,3.63
2024-05-09T16:15:40.648Z,3.67
2024-05-09T16:18:08.619Z,3.22
2024-05-09T16:20:40.228Z,3.22
2024-05-09T16:23:10.533Z,4.53
2024-05-09T16:25:38.314Z,3.78
2024-05-09T16:28:09.757Z,3.50
2024-05-09T16:30:39.924Z,3.22
2024-05-09T16:33:08.756Z,3.30
2024-05-09T16:35:37.843Z,3.88
2024-05-09T16:38:06.305Z,3.28
2024-05-09T16:40:38.623Z,3.42
2024-05-09T16:43:10.432Z,2.85
2024-05-09T16:45:41.422Z,3.63
2024-05-09T16:48:09.693Z,2.90
2024-05-09T16:50:37.558Z,2.53
2024-05-09T16:53:06.697Z,2.25
2024-05-09T16:55:37.709Z,2.17
2024-05-09T16:58:08.342Z,2.65
2024-05-09T17:00:41.376Z,2.53
2024-05-09T17:03:14.305Z,2.58
2024-05-09T17:05:43.361Z,2.35
2024-05-09T17:08:11.191Z,2.33
2024-05-09T17:10:38.778Z,2.00
2024-05-09T17:13:08.053Z,2.83
2024-05-09T17:15:37.444Z,3.05
2024-05-09T17:18:07.522Z,3.40
2024-05-09T17:20:37.484Z,3.92
2024-05-09T17:23:15.495Z,6.50
2024-05-09T17:25:44.109Z,3.08
2024-05-09T17:28:12.233Z,3.40
2024-05-09T17:30:42.075Z,3.08
2024-05-09T17:33:11.320Z,2.80
2024-05-09T17:35:40.499Z,2.80
2024-05-09T17:38:08.249Z,2.70
2024-05-09T17:40:37.796Z,2.45
2024-05-09T17:43:09.026Z,2.50
2024-05-09T17:45:40.069Z,2.10
2024-05-09T17:48:10.522Z,2.55
2024-05-09T17:50:39.591Z,1.98
2024-05-09T17:53:07.308Z,2.45
2024-05-09T17:55:35.641Z,2.55
2024-05-09T17:58:05.523Z,3.47
2024-05-09T18:00:39.312Z,3.17
2024-05-09T18:03:14.202Z,4.13
2024-05-09T18:05:43.655Z,4.72
2024-05-09T18:08:12.274Z,4.95
2024-05-09T18:10:43.231Z,6.15
2024-05-09T18:13:12.494Z,5.60
2024-05-09T18:15:40.795Z,5.18
2024-05-09T18:18:09.462Z,4.57
2024-05-09T18:20:43.140Z,5.38
2024-05-09T18:23:15.958Z,5.45
2024-05-09T18:25:45.230Z,5.22
2024-05-09T18:28:12.866Z,5.22
2024-05-09T18:30:41.443Z,5.20
2024-05-09T18:33:12.698Z,4.75
2024-05-09T18:35:44.776Z,4.72
2024-05-09T18:38:12.446Z,4.97
2024-05-09T18:40:41.997Z,4.97
2024-05-09T18:43:11.442Z,5.28
2024-05-09T18:45:39.661Z,5.95
2024-05-09T18:48:10.255Z,6.55
2024-05-09T18:50:40.817Z,6.60
2024-05-09T18:53:11.753Z,6.03
2024-05-09T18:55:40.866Z,6.25
2024-05-09T18:58:08.440Z,6.43
2024-05-09T19:00:39.189Z,6.15
2024-05-09T19:03:12.375Z,6.57
2024-05-09T19:05:45.905Z,6.15
2024-05-09T19:08:15.336Z,6.72
2024-05-09T19:10:43.708Z,6.30
2024-05-09T19:13:13.527Z,6.82
2024-05-09T19:15:43.140Z,6.65
2024-05-09T19:18:13.380Z,6.53
2024-05-09T19:20:41.848Z,6.68
2024-05-09T19:23:11.054Z,7.45
2024-05-09T19:25:38.511Z,7.30
2024-05-09T19:28:06.562Z,7.15
2024-05-09T19:30:39.664Z,6.63
2024-05-09T19:33:12.729Z,7.43
2024-05-09T19:35:41.778Z,7.40
2024-05-09T19:38:09.448Z,8.38
2024-05-09T19:40:37.089Z,7.88
2024-05-09T19:43:05.961Z,8.15
2024-05-09T19:45:35.608Z,7.75
2024-05-09T19:48:05.165Z,7.80
2024-05-09T19:50:41.743Z,8.25
2024-05-09T19:53:13.525Z,8.43
2024-05-09T19:55:41.564Z,8.02
2024-05-09T19:58:12.007Z,9.32
2024-05-09T20:00:42.948Z,9.13
2024-05-09T20:03:15.521Z,8.77
2024-05-09T20:05:47.431Z,9.23
2024-05-09T20:08:16.738Z,9.55
2024-05-09T20:10:45.745Z,9.38
2024-05-09T20:13:14.378Z,9.20
2024-05-09T20:15:42.077Z,8.75
2024-05-09T20:18:09.721Z,8.18
2024-05-09T20:20:41.471Z,8.10
2024-05-09T20:23:12.736Z,7.38
2024-05-09T20:25:40.854Z,8.23
2024-05-09T20:28:08.799Z,8.15
2024-05-09T20:30:36.875Z,7.90
2024-05-09T20:33:09.761Z,9.00
2024-05-09T20:35:37.886Z,7.80
2024-05-09T20:38:05.908Z,7.70
2024-05-09T20:40:37.852Z,8.18
2024-05-09T20:43:08.541Z,8.82
2024-05-09T20:45:36.776Z,8.77
2024-05-09T20:48:04.866Z,9.18
2024-05-09T20:50:38.731Z,9.20
2024-05-09T20:53:11.274Z,9.23
2024-05-09T20:55:40.009Z,10.63
2024-05-09T20:58:07.580Z,10.32
2024-05-09T21:00:40.060Z,11.07
2024-05-09T21:03:11.806Z,9.95
2024-05-09T21:05:40.245Z,9.85
2024-05-09T21:08:09.286Z,10.13
2024-05-09T21:10:37.851Z,10.48
2024-05-09T21:13:07.607Z,8.73
2024-05-09T21:15:37.732Z,10.48
2024-05-09T21:18:05.620Z,10.10
2024-05-09T21:20:35.354Z,10.00
2024-05-09T21:23:03.686Z,10.07
2024-05-09T21:25:32.203Z,11.45
2024-05-09T21:28:00.779Z,11.02
2024-05-09T21:30:38.368Z,11.32
2024-05-09T21:33:11.050Z,11.32
2024-05-09T21:35:40.632Z,11.35
2024-05-09T21:38:08.370Z,12.93
2024-05-09T21:40:38.198Z,12.40
2024-05-09T21:43:09.471Z,13.10
2024-05-09T21:45:37.828Z,13.65
2024-05-09T21:48:06.768Z,14.25
2024-05-09T21:50:40.333Z,13.55
2024-05-09T21:53:11.854Z,14.43
2024-05-09T21:55:39.795Z,15.48
2024-05-09T21:58:07.251Z,15.00
2024-05-09T22:00:38.353Z,14.98
2024-05-09T22:03:10.918Z,15.60
2024-05-09T22:05:42.562Z,15.30
2024-05-09T22:08:11.156Z,16.75
2024-05-09T22:10:38.885Z,16.02
2024-05-09T22:13:08.532Z,16.80
2024-05-09T22:15:39.487Z,15.45
2024-05-09T22:18:09.389Z,16.52
2024-05-09T22:20:44.689Z,16.40
2024-05-09T22:23:13.885Z,17.52
2024-05-09T22:25:41.351Z,17.23
2024-05-09T22:28:09.148Z,17.10
2024-05-09T22:30:39.379Z,17.27
2024-05-09T22:33:10.428Z,16.65
2024-05-09T22:35:40.756Z,18.02
2024-05-09T22:38:08.839Z,17.77
2024-05-09T22:40:45.737Z,17.05
2024-05-09T22:43:21.511Z,18.15
2024-05-09T22:45:51.536Z,16.40
2024-05-09T22:48:19.439Z,18.23
2024-05-09T22:50:47.102Z,16.92
2024-05-09T22:53:14.475Z,17.13
2024-05-09T22:55:42.794Z,16.17
2024-05-09T22:58:10.282Z,14.07
2024-05-09T23:00:38.058Z,13.80
2024-05-09T23:03:06.422Z,13.07
2024-05-09T23:05:33.975Z,12.15
2024-05-09T23:08:02.877Z,12.75
2024-05-09T23:10:35.983Z,12.88
2024-05-09T23:13:07.396Z,12.90
2024-05-09T23:15:40.284Z,12.75
2024-05-09T23:18:08.475Z,11.13
2024-05-09T23:20:38.997Z,10.88
2024-05-09T23:23:09.446Z,10.63
2024-05-09T23:25:38.046Z,11.38
2024-05-09T23:28:06.227Z,10.77
2024-05-09T23:30:38.486Z,10.57
2024-05-09T23:33:13.249Z,10.48
2024-05-09T23:35:42.619Z,9.27
2024-05-09T23:38:10.046Z,8.68
2024-05-09T23:40:40.898Z,8.35
2024-05-09T23:43:12.092Z,7.90
2024-05-09T23:45:40.955Z,8.40
2024-05-09T23:48:09.248Z,8.77
2024-05-09T23:50:38.733Z,8.65
2024-05-09T23:53:09.212Z,7.85
2024-05-09T23:55:37.998Z,10.05
2024-05-09T23:58:06.610Z,8.52
